ハルビン太平国際空港の過去48時間の天気

ハルビン太平国際空港 (Harbin)

現在時刻: 12/4 13:07 CST (12/4 05:07 UTC) 以下の時間は現地時間です。

過去48時間のMETAR気象情報
時間 風向 風速(m/s) 視程 気温(℃) 湿度(%) 気圧(hPa) 天気現象
4 12:00 南南西 4 10km以上 -10 73 1023
4 11:00 南南西 5 10km以上 -11 72 1024
4 10:00 南南西 5 10km以上 -12 72 1025
4 09:00 南南西 4 10km以上 -13 72 1025
4 08:00 南南西 4 10km以上 -14 78 1024
4 07:00 南南西 4 10km以上 -15 78 1024
4 06:00 南南西 4 10km以上 -16 85 1024
4 05:00 南西 3 10km以上 -16 78 1024
4 04:00 南南西 4 10km以上 -15 85 1024
4 03:00 南南西 4 10km以上 -14 78 1024
4 02:00 南南西 4 10km以上 -12 78 1024
4 01:00 南西 5 10km以上 -11 79 1024
4 00:00 南西 5 10km以上 -10 79 1024
3 23:00 南南西 5 10km以上 -10 79 1024
3 22:00 南南西 4 10km以上 -11 79 1024
3 21:00 南南西 4 10km以上 -11 79 1024
3 20:00 南南西 6 10km以上 -11 79 1024
3 19:00 南南西 5 10km以上 -10 73 1024
3 18:00 南南西 5 10km以上 -11 79 1025
3 17:00 南南西 5 10km以上 -11 79 1025
3 16:00 南南西 4 10km以上 -10 79 1025
3 15:00 南南西 4 10km以上 -9 73 1025
3 14:00 南南西 4 10km以上 -8 73 1025
3 13:00 南西 5 10km以上 -8 73 1025
3 12:00 西南西 5 10km以上 -9 73 1025
3 11:00 南西 4 10km以上 -11 79 1026
3 10:00 南西 4 10km以上 -12 72 1026
3 09:00 南西 4 10km以上 -15 78 1026
3 08:00 南南西 3 10km以上 -16 85 1025
3 07:00 南南西 3 10km以上 -16 85 1025
3 06:00 南西 5 10km以上 -16 78 1025
3 05:00 南西 5 10km以上 -15 78 1025
3 04:00 南西 5 10km以上 -14 78 1025
ZYHB 040400Z 20004MPS CAVOK M10/M14 Q1023 NOSIG
ZYHB 040300Z 20005MPS CAVOK M11/M15 Q1024 NOSIG
ZYHB 040200Z 20005MPS CAVOK M12/M16 Q1025 NOSIG
ZYHB 040100Z 20004MPS CAVOK M13/M17 Q1025 NOSIG
ZYHB 040000Z 21004MPS CAVOK M14/M17 Q1024 NOSIG
ZYHB 032300Z 21004MPS CAVOK M15/M18 Q1024 NOSIG
ZYHB 032200Z 21004MPS CAVOK M16/M18 Q1024 NOSIG
ZYHB 032100Z 22003MPS CAVOK M16/M19 Q1024 NOSIG
ZYHB 032000Z 21004MPS CAVOK M15/M17 Q1024 NOSIG
ZYHB 031900Z 21004MPS CAVOK M14/M17 Q1024 NOSIG
ZYHB 031800Z 21004MPS CAVOK M12/M15 Q1024 NOSIG
ZYHB 031700Z 22005MPS CAVOK M11/M14 Q1024 NOSIG
ZYHB 031600Z 22005MPS CAVOK M10/M13 Q1024 NOSIG
ZYHB 031500Z 21005MPS CAVOK M10/M13 Q1024 NOSIG
ZYHB 031400Z 21004MPS CAVOK M11/M14 Q1024 NOSIG
ZYHB 031300Z 21004MPS CAVOK M11/M14 Q1024 NOSIG
ZYHB 031200Z 20006MPS CAVOK M11/M14 Q1024 NOSIG
ZYHB 031100Z 21005MPS CAVOK M10/M14 Q1024 NOSIG
ZYHB 031000Z 21005MPS CAVOK M11/M14 Q1025 NOSIG
ZYHB 030900Z 21005MPS CAVOK M11/M14 Q1025 NOSIG
ZYHB 030800Z 20004MPS CAVOK M10/M13 Q1025 NOSIG
ZYHB 030700Z 21004MPS CAVOK M09/M13 Q1025 NOSIG
ZYHB 030600Z 20004MPS CAVOK M08/M12 Q1025 NOSIG
ZYHB 030500Z 22005MPS CAVOK M08/M12 Q1025 NOSIG
ZYHB 030400Z 24005MPS CAVOK M09/M13 Q1025 NOSIG
ZYHB 030300Z 22004MPS CAVOK M11/M14 Q1026 NOSIG
ZYHB 030200Z 22004MPS CAVOK M12/M16 Q1026 NOSIG
ZYHB 030100Z 22004MPS CAVOK M15/M18 Q1026 NOSIG
ZYHB 030000Z 20003MPS CAVOK M16/M18 Q1025 NOSIG
ZYHB 022300Z 20003MPS CAVOK M16/M18 Q1025 NOSIG
ZYHB 022200Z 22005MPS CAVOK M16/M19 Q1025 NOSIG
ZYHB 022100Z 22005MPS CAVOK M15/M18 Q1025 NOSIG
ZYHB 022000Z 22005MPS CAVOK M14/M17 Q1025 NOSIG